»·PEaware :: FDX1014 KPHX-KOAK

FDX1014 :: KPHX-KOAK

FLIGHT INFORMATION

Flight Status: Arrived
Operator:
Federal Express
More flights by this operator :: More flights under this callsign
Pilot: Jim M. (18055)
Aircraft: BOEING 777-200
(B772)
More flights by this aircraft type
Origin: KPHX Phoenix Sky Harbor Intl
United States
Destination: KOAK Metro Oakland Intl
United States
More flights between these airports :: More routes between these airports
Route: KEENS2 HRRBR CURIV J212 DECAS PMD GMN RGOOD SKIZM2
File this flight plan on PilotEdge
Remarks:
Altitude:
(Current/Filed)
38,000ft
Speed:
(Current/Filed)
450kts
Departed: 06-Jan-19 03:40 PM
Arrived: 06-Jan-19 05:21 PM
Distance/Time
Traveled:
560nm/1:40
Distance/Time
To Go:
Arrived

Flight Plot

Page will automatically refresh every two minutes.


Map Options




Map Legend


Flown Route
Filed Route
Departure Airport
Arrival Airport
Navaid (VOR, NDB)
Fix

Horizontal Profiles

Position Reports

Time Latitude Longitude Heading Altitude Ground
Speed
06-Jan-19 14:55 33.425957 -112.016623 90 1148ft 0kts
06-Jan-19 14:56 33.425957 -112.016623 90 1148ft 0kts
06-Jan-19 14:57 33.425957 -112.016623 90 1148ft 0kts
06-Jan-19 14:58 33.425957 -112.016623 90 1148ft 0kts
06-Jan-19 14:59 33.425957 -112.016623 90 1148ft 0kts
06-Jan-19 15:00 33.425957 -112.016623 90 1148ft 0kts
06-Jan-19 15:01 33.425957 -112.016623 90 1148ft 0kts
06-Jan-19 15:02 33.425957 -112.016623 90 1148ft 0kts
06-Jan-19 15:03 33.425957 -112.016623 90 1148ft 0kts
06-Jan-19 15:04 33.425957 -112.016623 90 1148ft 0kts
06-Jan-19 15:05 33.425957 -112.016623 90 1148ft 0kts
06-Jan-19 15:06 33.425957 -112.016623 90 1148ft 0kts
06-Jan-19 15:07 33.425957 -112.016623 90 1148ft 0kts
06-Jan-19 15:08 33.425957 -112.016623 90 1148ft 0kts
06-Jan-19 15:09 33.425957 -112.016623 90 1148ft 0kts
06-Jan-19 15:10 33.425957 -112.016623 90 1148ft 0kts
06-Jan-19 15:11 33.425957 -112.016623 90 1148ft 0kts
06-Jan-19 15:12 33.425957 -112.016623 90 1148ft 0kts
06-Jan-19 15:13 33.425957 -112.016623 90 1148ft 0kts
06-Jan-19 15:14 33.425957 -112.016623 90 1148ft 0kts
06-Jan-19 15:15 33.425957 -112.016623 90 1148ft 0kts
06-Jan-19 15:16 33.425957 -112.016623 90 1148ft 0kts
06-Jan-19 15:17 33.425957 -112.016623 90 1148ft 0kts
06-Jan-19 15:18 33.425957 -112.016623 90 1148ft 0kts
06-Jan-19 15:19 33.425957 -112.016623 90 1148ft 0kts
06-Jan-19 15:20 33.425957 -112.016623 90 1148ft 0kts
06-Jan-19 15:21 33.425957 -112.016623 90 1148ft 0kts
06-Jan-19 15:22 33.425959 -112.017061 90 1148ft 2kts
06-Jan-19 15:23 33.425964 -112.017838 90 1148ft 2kts
06-Jan-19 15:24 33.425967 -112.018372 90 1148ft 3kts
06-Jan-19 15:25 33.425967 -112.018145 90 1148ft 0kts
06-Jan-19 15:26 33.425967 -112.018145 90 1148ft 0kts
06-Jan-19 15:27 33.425967 -112.017991 90 1148ft 1kts
06-Jan-19 15:28 33.426487 -112.017464 1 1148ft 0kts
06-Jan-19 15:29 33.426488 -112.017464 1 1148ft 0kts
06-Jan-19 15:30 33.427593 -112.016979 59 1148ft 6kts
06-Jan-19 15:31 33.427737 -112.013849 91 1148ft 10kts
06-Jan-19 15:32 33.427750 -112.010476 89 1148ft 12kts
06-Jan-19 15:33 33.427778 -112.006336 89 1148ft 10kts
06-Jan-19 15:34 33.429665 -112.004657 56 1148ft 9kts
06-Jan-19 15:35 33.429945 -112.000015 90 1148ft 15kts
06-Jan-19 15:36 33.429960 -111.995550 90 1148ft 11kts
06-Jan-19 15:37 33.429969 -111.994059 77 1148ft 0kts
06-Jan-19 15:38 33.431006 -111.994940 270 1148ft 23kts
06-Jan-19 15:39 33.429932 -112.042884 269 3252ft 194kts
06-Jan-19 15:40 33.412921 -112.119494 250 6243ft 278kts
06-Jan-19 15:41 33.394978 -112.211250 273 8474ft 283kts
06-Jan-19 15:42 33.406992 -112.307447 282 12374ft 313kts
06-Jan-19 15:43 33.423883 -112.420857 282 15458ft 367kts
06-Jan-19 15:44 33.441882 -112.544210 283 19398ft 383kts
06-Jan-19 15:45 33.451737 -112.674668 273 22376ft 406kts
06-Jan-19 15:46 33.456499 -112.811787 281 25547ft 419kts
06-Jan-19 15:47 33.480791 -112.951065 285 28446ft 434kts
06-Jan-19 15:48 33.507435 -113.094654 284 30976ft 449kts
06-Jan-19 15:49 33.534872 -113.239817 284 33730ft 445kts
06-Jan-19 15:50 33.561106 -113.383769 284 36114ft 439kts
06-Jan-19 15:51 33.587010 -113.526098 284 38098ft 434kts
06-Jan-19 15:52 33.613542 -113.667259 284 38243ft 433kts
06-Jan-19 15:53 33.639443 -113.808095 284 38270ft 433kts
06-Jan-19 15:54 33.665311 -113.949057 284 38267ft 433kts
06-Jan-19 15:56 33.691031 -114.090622 283 38260ft 433kts
06-Jan-19 15:57 33.717186 -114.232109 284 38258ft 433kts
06-Jan-19 15:58 33.742656 -114.373388 283 38256ft 433kts
06-Jan-19 15:59 33.767895 -114.515066 283 38252ft 434kts
06-Jan-19 16:00 33.781257 -114.659986 274 38252ft 437kts
06-Jan-19 16:01 33.790370 -114.804953 282 38252ft 435kts
06-Jan-19 16:02 33.823811 -114.944710 288 38254ft 435kts
06-Jan-19 16:03 33.861036 -115.083432 288 38258ft 435kts
06-Jan-19 16:04 33.898017 -115.222170 287 38262ft 435kts
06-Jan-19 16:05 33.934869 -115.361190 287 38267ft 435kts
06-Jan-19 16:06 33.971489 -115.500054 287 38272ft 435kts
06-Jan-19 16:07 34.008014 -115.639274 287 38279ft 435kts
06-Jan-19 16:08 34.044273 -115.778191 287 38290ft 435kts
06-Jan-19 16:09 34.080324 -115.917030 287 38306ft 435kts
06-Jan-19 16:10 34.116351 -116.056496 287 38325ft 435kts
06-Jan-19 16:11 34.152152 -116.195811 286 38335ft 435kts
06-Jan-19 16:12 34.187819 -116.335336 286 38334ft 435kts
06-Jan-19 16:13 34.223328 -116.474979 286 38336ft 435kts
06-Jan-19 16:14 34.258742 -116.614987 286 38360ft 435kts
06-Jan-19 16:15 34.293985 -116.755061 286 38407ft 434kts
06-Jan-19 16:15 34.323104 -116.871365 286 38414ft 434kts
06-Jan-19 16:17 34.363859 -117.035019 285 38361ft 435kts
06-Jan-19 16:18 34.398582 -117.175270 285 38305ft 436kts
06-Jan-19 16:18 34.427504 -117.292670 285 38259ft 436kts
06-Jan-19 16:20 34.467874 -117.457441 285 38267ft 437kts
06-Jan-19 16:20 34.496546 -117.575103 285 38263ft 438kts
06-Jan-19 16:21 34.530893 -117.716767 284 38252ft 438kts
06-Jan-19 16:22 34.565203 -117.859063 284 38267ft 438kts
06-Jan-19 16:23 34.599183 -118.000766 284 38283ft 438kts
06-Jan-19 16:24 34.633174 -118.143283 284 38290ft 439kts
06-Jan-19 16:25 34.666960 -118.285713 284 38304ft 439kts
06-Jan-19 16:26 34.700510 -118.427895 284 38299ft 438kts
06-Jan-19 16:27 34.735201 -118.569937 284 38305ft 438kts
06-Jan-19 16:28 34.768756 -118.712355 283 38309ft 438kts
06-Jan-19 16:29 34.805291 -118.853520 295 38308ft 442kts
06-Jan-19 16:30 34.900272 -118.951673 322 38291ft 460kts
06-Jan-19 16:31 35.005811 -119.038775 319 38280ft 457kts
06-Jan-19 16:32 35.109103 -119.129825 319 38256ft 457kts
06-Jan-19 16:33 35.212343 -119.220793 318 38248ft 458kts
06-Jan-19 16:34 35.315480 -119.312272 318 38244ft 458kts
06-Jan-19 16:35 35.418808 -119.404250 318 38245ft 459kts
06-Jan-19 16:36 35.521851 -119.496275 317 38246ft 459kts
06-Jan-19 16:37 35.625052 -119.588745 317 38247ft 459kts
06-Jan-19 16:38 35.728664 -119.681582 317 38249ft 459kts
06-Jan-19 16:39 35.831711 -119.774739 317 38258ft 460kts
06-Jan-19 16:40 35.932927 -119.870152 311 38261ft 455kts
06-Jan-19 16:41 36.022484 -119.978485 309 38263ft 453kts
06-Jan-19 16:42 36.111033 -120.084845 309 38265ft 453kts
06-Jan-19 16:43 36.201193 -120.192091 309 36993ft 445kts
06-Jan-19 16:44 36.290346 -120.298558 309 34546ft 444kts
06-Jan-19 16:45 36.379227 -120.404842 308 32125ft 441kts
06-Jan-19 16:46 36.465937 -120.509578 308 30149ft 428kts
06-Jan-19 16:47 36.547714 -120.608037 309 29111ft 395kts
06-Jan-19 16:48 36.629871 -120.697931 310 27241ft 389kts
06-Jan-19 16:49 36.709521 -120.786486 310 25459ft 380kts
06-Jan-19 16:50 36.787831 -120.873663 310 23699ft 373kts
06-Jan-19 16:51 36.864551 -120.958821 311 21987ft 365kts
06-Jan-19 16:52 36.939643 -121.041788 311 20308ft 356kts
06-Jan-19 16:53 37.012877 -121.123521 311 18646ft 348kts
06-Jan-19 16:54 37.084227 -121.203463 312 17170ft 345kts
06-Jan-19 16:55 37.162977 -121.273868 326 15466ft 350kts
06-Jan-19 16:56 37.251522 -121.323583 330 13802ft 346kts
06-Jan-19 16:57 37.338646 -121.372250 331 12159ft 339kts
06-Jan-19 16:58 37.422968 -121.419543 331 11078ft 317kts
06-Jan-19 16:59 37.499943 -121.462849 332 10432ft 289kts
06-Jan-19 17:00 37.573262 -121.504037 332 9663ft 289kts
06-Jan-19 17:01 37.646499 -121.545417 333 8880ft 289kts
06-Jan-19 17:02 37.714049 -121.597008 317 8383ft 280kts
06-Jan-19 17:03 37.771945 -121.664061 314 8379ft 282kts
06-Jan-19 17:04 37.829086 -121.730878 313 7436ft 275kts
06-Jan-19 17:05 37.867512 -121.813588 290 6801ft 270kts
06-Jan-19 17:06 37.895281 -121.898986 290 6399ft 255kts
06-Jan-19 17:07 37.917454 -121.984438 276 6185ft 255kts
06-Jan-19 17:08 37.922596 -122.072720 272 5273ft 252kts
06-Jan-19 17:09 37.928570 -122.160675 274 4415ft 247kts
06-Jan-19 17:10 37.935146 -122.247100 274 4398ft 241kts
06-Jan-19 17:11 37.941342 -122.328200 274 4383ft 222kts
06-Jan-19 17:12 37.946855 -122.401724 270 4279ft 203kts
06-Jan-19 17:13 37.913209 -122.449893 214 3381ft 184kts
06-Jan-19 17:14 37.868318 -122.449095 152 3383ft 174kts
06-Jan-19 17:15 37.831664 -122.408204 134 3088ft 179kts
06-Jan-19 17:16 37.800075 -122.362319 130 2235ft 170kts
06-Jan-19 17:17 37.771704 -122.319682 130 1511ft 150kts
06-Jan-19 17:18 37.744883 -122.279383 129 736ft 149kts
06-Jan-19 17:19 37.718305 -122.239501 130 21ft 147kts
06-Jan-19 17:20 37.709839 -122.226713 100 19ft 6kts
06-Jan-19 17:21 37.712258 -122.225398 50 19ft 11kts
06-Jan-19 17:22 37.713915 -122.222137 109 19ft 12kts
06-Jan-19 17:23 37.715072 -122.219499 45 19ft 8kts
06-Jan-19 17:24 37.716371 -122.219689 320 19ft 0kts
06-Jan-19 17:25 37.717702 -122.217625 64 19ft 11kts
06-Jan-19 17:26 37.719193 -122.217078 307 19ft 1kts
06-Jan-19 17:27 37.719358 -122.217370 305 19ft 0kts
06-Jan-19 17:28 37.719358 -122.217370 305 19ft 0kts
06-Jan-19 17:29 37.719358 -122.217370 305 19ft 0kts

Navigation Log

Ident Type
Flight plan parsing failed, navigation log unavailable